Time;durP1;ratioP1;P1;durP2;ratioP2;P2;SDS_P1;SDS_P2;PMS_P1;PMS_P2;Temp;Humidity;BMP_temperature;BMP_pressure;BME280_temperature;BME280_humidity;BME280_pressure;Samples;Min_cycle;Max_cycle;Signal;HPM_P1;HPM_P2
2022/11/04 00:01:52;;;;;;;21.83;20.10;;;10.40;99.90;;;;;;5059915;28;20254;-78
2022/11/04 00:04:20;;;;;;;31.87;29.70;;;10.40;99.90;;;;;;5088265;28;20198;-79
2022/11/04 00:06:46;;;;;;;31.57;29.57;;;10.40;99.90;;;;;;5069869;28;20246;-78
2022/11/04 00:09:18;;;;;;;20.10;18.23;;;10.40;99.90;;;;;;5065102;28;20186;-77
2022/11/04 00:14:30;;;;;;;13.77;12.43;;;10.40;99.90;;;;;;5079533;28;20676;-78
2022/11/04 00:33:24;;;;;;;12.90;11.90;;;10.30;99.90;;;;;;5056957;28;20182;-77
2022/11/04 00:33:43;;;;;;;16.30;14.63;;;10.30;99.90;;;;;;5074071;28;20188;-78
2022/11/04 00:36:09;;;;;;;13.93;12.70;;;10.40;99.90;;;;;;5056246;28;20166;-78
2022/11/04 00:38:34;;;;;;;18.73;17.20;;;10.30;99.90;;;;;;5055715;28;20724;-78
2022/11/04 00:41:00;;;;;;;25.07;23.40;;;10.30;99.90;;;;;;5086533;28;20207;-78
2022/11/04 00:43:26;;;;;;;28.97;26.63;;;10.30;99.90;;;;;;5071007;28;20215;-78
2022/11/04 00:45:51;;;;;;;30.87;28.37;;;10.30;99.90;;;;;;5061683;28;20304;-78
2022/11/04 00:48:17;;;;;;;21.50;19.83;;;10.20;99.90;;;;;;5054105;28;20218;-78
2022/11/04 00:50:43;;;;;;;16.70;15.60;;;10.20;99.90;;;;;;5072317;28;20186;-78
2022/11/04 00:53:09;;;;;;;9.97;9.20;;;10.30;99.90;;;;;;5054909;28;20182;-78
2022/11/04 00:55:34;;;;;;;10.07;9.20;;;10.30;99.90;;;;;;5057691;28;20224;-78
2022/11/04 00:58:00;;;;;;;8.53;7.93;;;10.30;99.90;;;;;;5058918;28;20189;-78
2022/11/04 01:00:26;;;;;;;7.77;7.17;;;10.30;99.90;;;;;;5060128;28;20185;-78
2022/11/04 01:02:52;;;;;;;9.30;8.70;;;10.20;99.90;;;;;;5078337;28;20178;-78
2022/11/04 01:05:18;;;;;;;14.77;13.97;;;10.30;99.90;;;;;;5060910;28;20685;-78
2022/11/04 01:07:43;;;;;;;18.73;17.67;;;10.30;99.90;;;;;;5061585;28;20213;-77
2022/11/04 01:10:10;;;;;;;19.27;18.27;;;10.30;99.90;;;;;;5081992;28;20174;-78
2022/11/04 01:12:35;;;;;;;23.10;21.83;;;10.30;99.90;;;;;;5082557;28;20554;-78
2022/11/04 01:15:02;;;;;;;11.70;11.00;;;10.30;99.90;;;;;;5081960;28;20194;-78
2022/11/04 01:17:27;;;;;;;6.40;5.90;;;10.30;99.90;;;;;;5063111;28;20219;-78
2022/11/04 01:19:53;;;;;;;6.20;5.73;;;10.30;99.90;;;;;;5081582;28;20281;-78
2022/11/04 01:22:19;;;;;;;5.97;5.53;;;10.20;99.90;;;;;;5080341;28;20191;-78
2022/11/04 01:24:44;;;;;;;9.83;9.23;;;10.30;99.90;;;;;;5081630;28;20255;-78
2022/11/04 01:27:10;;;;;;;17.50;16.37;;;10.20;99.90;;;;;;5081527;28;20559;-78
2022/11/04 01:29:36;;;;;;;18.93;17.80;;;10.20;99.90;;;;;;5063315;28;20188;-78
2022/11/04 01:32:02;;;;;;;16.37;15.47;;;10.30;99.90;;;;;;5081332;28;20244;-78
2022/11/04 01:34:28;;;;;;;16.93;15.93;;;10.30;99.90;;;;;;5070119;28;20190;-77
2022/11/04 01:36:53;;;;;;;10.47;9.80;;;10.30;99.90;;;;;;5094077;28;20189;-78
2022/11/04 01:39:19;;;;;;;6.57;6.17;;;10.40;99.90;;;;;;5092386;28;20201;-78
2022/11/04 01:41:45;;;;;;;5.97;5.67;;;10.40;99.90;;;;;;5064000;28;20184;-78
2022/11/04 01:44:41;;;;;;;6.70;6.23;;;10.50;99.90;;;;;;5081595;28;20194;-78
2022/11/04 01:47:22;;;;;;;7.27;6.77;;;10.40;99.90;;;;;;5064288;28;20208;-78
2022/11/04 01:49:53;;;;;;;7.73;7.23;;;10.50;99.90;;;;;;5063495;28;20181;-78
2022/11/04 01:52:52;;;;;;;7.37;6.90;;;10.50;99.90;;;;;;5057951;28;20239;-78
2022/11/04 01:55:24;;;;;;;8.30;7.80;;;10.50;99.90;;;;;;5056387;28;20244;-78
2022/11/04 01:57:53;;;;;;;5.73;5.33;;;10.50;99.90;;;;;;5078237;28;20186;-78
2022/11/04 02:00:19;;;;;;;5.23;4.87;;;10.50;99.90;;;;;;5076855;28;20205;-78
2022/11/04 02:02:59;;;;;;;5.60;5.30;;;10.50;99.90;;;;;;5080818;28;20177;-78
2022/11/04 02:05:27;;;;;;;8.17;7.77;;;10.50;99.90;;;;;;5069819;28;20185;-78
2022/11/04 02:07:56;;;;;;;28.07;26.70;;;10.50;99.90;;;;;;5065399;28;20212;-78
2022/11/04 02:10:25;;;;;;;36.83;34.97;;;10.40;99.90;;;;;;5069473;28;20235;-78
2022/11/04 02:12:53;;;;;;;37.20;35.40;;;10.40;99.90;;;;;;5062031;28;20264;-78
2022/11/04 02:15:33;;;;;;;35.03;33.33;;;10.40;99.90;;;;;;5079460;28;20266;-78
2022/11/04 02:18:08;;;;;;;38.00;35.90;;;10.40;99.90;;;;;;5081509;28;20186;-78
2022/11/04 02:20:58;;;;;;;42.40;40.33;;;10.40;99.90;;;;;;5073325;28;20232;-77
2022/11/04 02:23:43;;;;;;;39.83;37.73;;;10.30;99.90;;;;;;5073258;28;20650;-77
2022/11/04 02:26:23;;;;;;;33.33;31.60;;;10.30;99.90;;;;;;5055753;28;20205;-77
2022/11/04 02:29:08;;;;;;;7.73;7.20;;;10.20;99.90;;;;;;5055230;28;20194;-78
2022/11/04 02:31:45;;;;;;;8.37;8.07;;;10.10;99.90;;;;;;5055656;28;20217;-77
2022/11/04 02:34:14;;;;;;;7.60;7.20;;;10.10;99.90;;;;;;5073411;28;20216;-77
2022/11/04 02:36:49;;;;;;;9.37;8.97;;;10.10;99.90;;;;;;5073318;28;20189;-77
2022/11/04 02:39:46;;;;;;;10.53;9.93;;;10.10;99.90;;;;;;5073094;28;20205;-77
2022/11/04 02:42:31;;;;;;;6.07;5.77;;;10.10;99.90;;;;;;5073133;28;20185;-77
2022/11/04 02:45:11;;;;;;;8.00;7.60;;;10.00;99.90;;;;;;5054974;28;20670;-77
2022/11/04 02:47:42;;;;;;;7.97;7.57;;;10.00;99.90;;;;;;5053643;28;20188;-77
2022/11/04 02:50:24;;;;;;;5.90;5.50;;;10.00;99.90;;;;;;5054297;28;20551;-77
2022/11/04 02:52:53;;;;;;;7.13;6.83;;;9.90;99.90;;;;;;5073460;28;20193;-77
2022/11/04 02:55:29;;;;;;;7.23;6.83;;;9.80;99.90;;;;;;5054983;28;20221;-77
2022/11/04 02:57:59;;;;;;;12.83;12.03;;;9.80;99.90;;;;;;5034757;28;20189;-77
2022/11/04 03:00:25;;;;;;;5.80;5.50;;;9.80;99.90;;;;;;5051602;28;20670;-77
2022/11/04 03:03:02;;;;;;;20.87;19.87;;;9.80;99.90;;;;;;5054966;28;20185;-77
2022/11/04 03:05:33;;;;;;;13.07;12.47;;;9.70;99.90;;;;;;5054734;28;20201;-77
2022/11/04 03:08:06;;;;;;;16.10;15.40;;;9.70;99.90;;;;;;5072886;28;20204;-77
2022/11/04 03:10:34;;;;;;;23.53;22.40;;;9.70;99.90;;;;;;5072962;28;20185;-77
2022/11/04 03:13:21;;;;;;;18.70;17.50;;;9.70;99.90;;;;;;5054782;28;20226;-77
2022/11/04 03:16:03;;;;;;;10.03;9.53;;;9.60;99.90;;;;;;5072802;28;20592;-77
2022/11/04 03:18:52;;;;;;;8.03;7.33;;;9.60;99.90;;;;;;5071461;28;20922;-77
2022/11/04 03:21:20;;;;;;;9.67;9.17;;;9.60;99.90;;;;;;5043708;28;20243;-77
2022/11/04 03:23:46;;;;;;;27.70;25.97;;;9.50;99.90;;;;;;5072235;28;20185;-77
2022/11/04 03:26:22;;;;;;;57.63;54.87;;;9.50;99.90;;;;;;5072183;28;20542;-77
2022/11/04 03:29:24;;;;;;;29.43;28.03;;;9.50;99.90;;;;;;5071567;28;20178;-77
2022/11/04 03:32:00;;;;;;;19.87;18.90;;;9.50;99.90;;;;;;5054458;28;20188;-77
2022/11/04 03:34:26;;;;;;;17.23;16.37;;;9.50;99.90;;;;;;5054511;28;20208;-77
2022/11/04 03:36:52;;;;;;;15.97;15.20;;;9.50;99.90;;;;;;5068532;28;20182;-76
2022/11/04 03:39:18;;;;;;;7.03;6.53;;;9.50;99.90;;;;;;5053958;28;20206;-77
2022/11/04 03:41:54;;;;;;;4.63;4.43;;;9.50;99.90;;;;;;5071238;28;20178;-77
2022/11/04 03:44:20;;;;;;;4.63;4.43;;;9.50;99.90;;;;;;5071593;28;20236;-77
2022/11/04 03:46:46;;;;;;;5.23;4.90;;;9.50;99.90;;;;;;5071187;28;20579;-76
2022/11/04 03:49:13;;;;;;;4.23;4.13;;;9.50;99.90;;;;;;5070241;28;20195;-77
2022/11/04 03:51:38;;;;;;;4.33;4.17;;;9.50;99.90;;;;;;5071392;28;20177;-76
2022/11/04 03:54:05;;;;;;;5.00;4.80;;;9.50;99.90;;;;;;5063368;28;20716;-77
2022/11/04 03:57:07;;;;;;;5.57;5.13;;;9.50;99.90;;;;;;5053606;28;20191;-76
2022/11/04 04:00:08;;;;;;;6.80;6.47;;;9.50;99.90;;;;;;5071264;28;20212;-77
2022/11/04 04:02:56;;;;;;;7.20;6.70;;;9.50;99.90;;;;;;5071261;28;20651;-77
2022/11/04 04:05:40;;;;;;;4.73;4.50;;;9.50;99.90;;;;;;5053573;28;20296;-77
2022/11/04 04:08:27;;;;;;;4.93;4.63;;;9.40;99.90;;;;;;5071286;28;20214;-77
2022/11/04 04:11:27;;;;;;;10.70;10.00;;;9.30;99.90;;;;;;5054790;28;20177;-77
2022/11/04 04:14:05;;;;;;;53.27;50.50;;;9.20;99.90;;;;;;5053873;28;20265;-77
2022/11/04 04:16:35;;;;;;;30.93;29.07;;;9.10;99.90;;;;;;5073471;28;20173;-77
2022/11/04 04:19:10;;;;;;;8.60;8.20;;;9.10;99.90;;;;;;5053920;28;20202;-77
2022/11/04 04:21:44;;;;;;;7.13;6.83;;;9.10;99.90;;;;;;5053493;28;20177;-77
2022/11/04 04:29:45;;;;;;;27.97;26.60;;;9.00;99.90;;;;;;5069313;28;20238;-77
2022/11/04 04:32:13;;;;;;;33.30;31.30;;;9.00;99.90;;;;;;5069512;28;20178;-77
2022/11/04 04:34:39;;;;;;;25.30;24.10;;;9.00;99.90;;;;;;5066705;28;20208;-77
2022/11/04 04:37:14;;;;;;;28.93;27.57;;;9.00;99.90;;;;;;5093245;28;20192;-77
2022/11/04 04:45:36;;;;;;;30.63;29.13;;;9.00;99.90;;;;;;5070475;28;20206;-77
2022/11/04 04:48:03;;;;;;;28.03;26.70;;;9.10;99.90;;;;;;5046930;28;20182;-77
2022/11/04 04:50:36;;;;;;;28.43;26.80;;;9.10;99.90;;;;;;5048800;28;20185;-78
2022/11/04 04:53:05;;;;;;;33.07;31.47;;;9.00;99.90;;;;;;5062080;28;20643;-76
2022/11/04 04:55:30;;;;;;;16.93;15.87;;;9.00;99.90;;;;;;5088672;22;20589;-77
2022/11/04 04:57:57;;;;;;;14.30;13.67;;;9.10;99.90;;;;;;5088261;28;20195;-77
2022/11/04 05:00:23;;;;;;;25.13;23.93;;;9.10;99.90;;;;;;5090473;28;20209;-79
2022/11/04 05:02:49;;;;;;;21.87;20.83;;;9.10;99.90;;;;;;5092562;28;20192;-81
2022/11/04 05:05:15;;;;;;;48.43;46.07;;;9.00;99.90;;;;;;5090046;28;20577;-81
2022/11/04 05:07:41;;;;;;;65.93;62.50;;;9.00;99.90;;;;;;5068315;28;20182;-80
2022/11/04 05:10:10;;;;;;;74.13;70.37;;;9.00;99.90;;;;;;5074566;28;20273;-76
2022/11/04 05:15:22;;;;;;;63.97;60.63;;;8.90;99.90;;;;;;5075541;28;20229;-79
2022/11/04 05:17:56;;;;;;;55.13;51.80;;;8.80;99.90;;;;;;5054676;28;20186;-76
2022/11/04 05:20:23;;;;;;;54.83;52.00;;;8.70;99.90;;;;;;5056031;28;20267;-81
2022/11/04 05:22:49;;;;;;;39.53;37.57;;;8.70;99.90;;;;;;5057290;28;20182;-77
2022/11/04 05:25:15;;;;;;;52.27;49.77;;;8.70;99.90;;;;;;5062140;28;20225;-77
2022/11/04 05:27:40;;;;;;;70.07;66.63;;;8.70;99.90;;;;;;5077034;28;20273;-80
2022/11/04 05:30:07;;;;;;;67.20;63.90;;;8.60;99.90;;;;;;5076101;28;20186;-80
2022/11/04 05:32:33;;;;;;;43.07;40.93;;;8.60;99.90;;;;;;5076926;28;20182;-80
2022/11/04 05:34:58;;;;;;;18.13;17.10;;;8.60;99.90;;;;;;5075748;28;20678;-80
2022/11/04 05:37:25;;;;;;;7.83;7.43;;;8.60;99.90;;;;;;5059318;28;20190;-80
2022/11/04 05:39:51;;;;;;;8.77;8.23;;;8.60;99.90;;;;;;5055474;28;20375;-80
2022/11/04 05:42:17;;;;;;;36.80;35.00;;;8.60;99.90;;;;;;5059383;28;20213;-81
2022/11/04 05:44:43;;;;;;;47.20;44.90;;;8.50;99.90;;;;;;5061333;28;20185;-80
2022/11/04 05:47:09;;;;;;;43.80;41.53;;;8.40;99.90;;;;;;5072651;28;20173;-78
2022/11/04 05:49:34;;;;;;;87.97;83.57;;;8.40;99.90;;;;;;5078619;28;20182;-80
2022/11/04 05:52:00;;;;;;;63.20;59.93;;;8.30;99.90;;;;;;5078356;28;20182;-80
2022/11/04 05:54:26;;;;;;;68.67;65.37;;;8.30;99.90;;;;;;5079556;28;20216;-81
2022/11/04 05:56:52;;;;;;;54.50;51.50;;;8.30;99.90;;;;;;5079912;28;20237;-80
2022/11/04 05:59:18;;;;;;;22.40;20.83;;;8.30;99.90;;;;;;5072505;28;20229;-78
2022/11/04 06:01:44;;;;;;;7.50;6.97;;;8.40;99.90;;;;;;5064507;28;20185;-78
2022/11/04 06:04:16;;;;;;;9.00;8.33;;;8.40;99.90;;;;;;5058011;28;20252;-81
2022/11/04 06:06:42;;;;;;;8.23;7.63;;;8.30;99.90;;;;;;5068999;28;20197;-80
2022/11/04 06:09:08;;;;;;;8.53;8.03;;;8.30;99.90;;;;;;5079391;28;20178;-80
2022/11/04 06:11:35;;;;;;;21.93;20.73;;;8.20;99.90;;;;;;5078728;28;20178;-81
2022/11/04 06:14:01;;;;;;;40.17;38.20;;;8.20;99.90;;;;;;5077472;28;20177;-80
2022/11/04 06:16:27;;;;;;;85.33;80.93;;;8.20;99.90;;;;;;5076112;28;20320;-80
2022/11/04 06:18:53;;;;;;;67.27;63.70;;;8.10;99.90;;;;;;5077608;28;20201;-78
2022/11/04 06:21:24;;;;;;;60.10;57.00;;;8.10;99.90;;;;;;5063337;28;20198;-78
2022/11/04 06:23:51;;;;;;;72.70;69.17;;;8.10;99.90;;;;;;5057883;28;20186;-78
2022/11/04 06:26:17;;;;;;;83.57;79.33;;;8.10;99.90;;;;;;5056473;28;20694;-75
2022/11/04 06:28:43;;;;;;;46.87;44.47;;;8.00;99.90;;;;;;5052707;28;20186;-74
2022/11/04 06:31:11;;;;;;;29.40;27.67;;;8.00;99.90;;;;;;5053220;28;20673;-72
2022/11/04 06:33:37;;;;;;;25.77;24.27;;;8.00;99.90;;;;;;5051828;28;20185;-71
2022/11/04 06:36:05;;;;;;;13.10;12.20;;;8.10;99.90;;;;;;5062472;28;20201;-71
2022/11/04 06:38:33;;;;;;;8.33;7.83;;;8.00;99.90;;;;;;5052171;28;20214;-71
2022/11/04 06:40:59;;;;;;;7.13;6.73;;;8.00;99.90;;;;;;5066672;28;20273;-72
2022/11/04 06:43:25;;;;;;;6.23;5.30;;;8.00;99.90;;;;;;5070836;28;20260;-74
2022/11/04 06:45:54;;;;;;;5.27;4.97;;;8.00;99.90;;;;;;5071291;28;20198;-72
2022/11/04 06:48:20;;;;;;;7.10;6.60;;;8.00;99.90;;;;;;5071402;28;20181;-74
2022/11/04 06:50:45;;;;;;;9.30;8.60;;;8.00;99.90;;;;;;5071424;28;20688;-72
2022/11/04 06:53:11;;;;;;;10.80;10.00;;;8.00;99.90;;;;;;5063827;28;20202;-73
2022/11/04 06:55:37;;;;;;;10.73;9.83;;;8.00;99.90;;;;;;5054159;28;20556;-75
2022/11/04 06:58:03;;;;;;;10.20;9.53;;;8.00;99.90;;;;;;5065603;28;20171;-73
2022/11/04 07:00:28;;;;;;;8.97;8.37;;;8.00;99.90;;;;;;5048968;28;20267;-73
2022/11/04 07:02:54;;;;;;;11.17;10.30;;;8.00;99.90;;;;;;5051264;28;20171;-72
2022/11/04 07:05:20;;;;;;;12.40;11.40;;;8.00;99.90;;;;;;5052362;28;20674;-72
2022/11/04 07:07:46;;;;;;;12.33;10.07;;;7.90;99.90;;;;;;5064399;28;20192;-72
2022/11/04 07:10:12;;;;;;;10.53;9.33;;;8.00;99.90;;;;;;5072461;28;20207;-73
2022/11/04 07:12:37;;;;;;;9.03;8.33;;;8.00;99.90;;;;;;5071780;28;20216;-75
2022/11/04 07:15:03;;;;;;;9.50;9.00;;;8.00;99.90;;;;;;5057300;28;20206;-73
2022/11/04 07:17:29;;;;;;;8.80;8.00;;;8.00;99.90;;;;;;5068002;28;20192;-72
2022/11/04 07:19:55;;;;;;;11.80;11.17;;;8.10;99.90;;;;;;5071975;28;20205;-73
2022/11/04 07:22:21;;;;;;;17.87;16.80;;;8.10;99.90;;;;;;5071688;28;20666;-73
2022/11/04 07:24:47;;;;;;;14.97;14.03;;;8.20;99.90;;;;;;5072063;28;20173;-73
2022/11/04 07:27:13;;;;;;;13.57;12.70;;;8.20;99.90;;;;;;5057597;28;20185;-74
2022/11/04 07:29:38;;;;;;;12.37;11.67;;;8.20;99.90;;;;;;5051618;28;20185;-73
2022/11/04 07:32:04;;;;;;;12.77;12.03;;;8.20;99.90;;;;;;5051914;28;20182;-73
2022/11/04 07:34:30;;;;;;;11.10;10.17;;;8.30;99.90;;;;;;5051745;28;20186;-72
2022/11/04 07:36:56;;;;;;;12.17;10.93;;;8.30;99.90;;;;;;5061001;28;20766;-73
2022/11/04 07:39:22;;;;;;;12.30;11.43;;;8.30;99.90;;;;;;5071131;28;20206;-72
2022/11/04 07:41:48;;;;;;;10.87;9.77;;;8.50;99.90;;;;;;5071803;28;20182;-73
2022/11/04 07:44:13;;;;;;;11.97;11.07;;;8.60;99.90;;;;;;5071572;28;20231;-73
2022/11/04 07:46:40;;;;;;;14.83;13.67;;;8.60;99.90;;;;;;5064461;28;20198;-73
2022/11/04 07:49:06;;;;;;;8.30;7.60;;;8.60;99.90;;;;;;5071234;28;20193;-72
2022/11/04 07:51:33;;;;;;;9.50;6.53;;;8.70;99.90;;;;;;5070259;28;20227;-73
2022/11/04 07:53:59;;;;;;;6.60;5.87;;;8.80;99.90;;;;;;5069227;28;20952;-73
2022/11/04 07:56:26;;;;;;;7.30;6.67;;;8.80;99.90;;;;;;5064499;28;20217;-73
2022/11/04 07:58:52;;;;;;;29.13;26.87;;;8.90;99.90;;;;;;5051161;28;20202;-74
2022/11/04 08:01:22;;;;;;;58.33;54.87;;;8.90;99.90;;;;;;5051655;28;20643;-74
2022/11/04 08:03:49;;;;;;;16.17;15.00;;;8.90;99.90;;;;;;5050205;28;20567;-74
2022/11/04 08:06:16;;;;;;;11.47;8.63;;;9.00;99.90;;;;;;5053442;28;20195;-74
2022/11/04 08:08:42;;;;;;;18.93;17.33;;;9.10;99.90;;;;;;5069908;28;20554;-74
2022/11/04 08:11:15;;;;;;;14.60;13.40;;;9.20;99.90;;;;;;5071324;28;20706;-73
2022/11/04 08:13:41;;;;;;;12.00;10.90;;;9.30;99.90;;;;;;5071314;28;20211;-74
2022/11/04 08:16:12;;;;;;;11.17;10.07;;;9.40;99.90;;;;;;5068763;28;20206;-74
2022/11/04 08:18:39;;;;;;;9.23;8.43;;;9.50;99.90;;;;;;5050027;28;20263;-73
2022/11/04 08:21:05;;;;;;;20.43;18.50;;;9.50;99.90;;;;;;5049783;28;20817;-74
2022/11/04 08:23:33;;;;;;;36.70;34.70;;;9.60;99.90;;;;;;5051119;28;20182;-75
2022/11/04 08:25:59;;;;;;;32.73;30.80;;;9.60;99.90;;;;;;5051841;28;20198;-75
2022/11/04 08:28:26;;;;;;;33.03;31.13;;;9.70;99.90;;;;;;5070980;28;20227;-74
2022/11/04 08:31:01;;;;;;;30.07;28.33;;;9.70;99.90;;;;;;5071166;28;20597;-74
2022/11/04 08:33:29;;;;;;;25.30;23.47;;;9.70;99.90;;;;;;5071007;28;20558;-75
2022/11/04 08:36:00;;;;;;;15.70;14.53;;;9.80;99.90;;;;;;5070177;28;20200;-73
2022/11/04 08:38:27;;;;;;;16.43;15.17;;;9.90;99.90;;;;;;5070665;28;20178;-75
2022/11/04 08:40:58;;;;;;;11.87;10.57;;;9.90;99.90;;;;;;5071137;28;20180;-74
2022/11/04 08:43:24;;;;;;;7.87;7.00;;;10.00;99.90;;;;;;5069851;28;20186;-74
2022/11/04 08:45:51;;;;;;;7.40;6.70;;;9.90;99.90;;;;;;5070931;28;20208;-74
2022/11/04 08:48:16;;;;;;;10.03;9.23;;;9.90;99.90;;;;;;5068686;28;20723;-74
2022/11/04 08:50:42;;;;;;;15.00;13.70;;;10.00;99.90;;;;;;5071110;28;20181;-73
2022/11/04 08:53:08;;;;;;;10.93;10.03;;;10.10;99.90;;;;;;5069793;28;20204;-73
2022/11/04 08:55:34;;;;;;;9.33;8.10;;;10.20;99.90;;;;;;5062231;28;20244;-74
2022/11/04 08:58:01;;;;;;;7.63;6.93;;;10.30;99.90;;;;;;5050621;28;20529;-73
2022/11/04 09:00:31;;;;;;;11.77;11.07;;;10.40;99.90;;;;;;5048873;28;20930;-73
2022/11/04 09:02:58;;;;;;;11.13;7.50;;;10.60;99.90;;;;;;5050765;28;20550;-74
2022/11/04 09:05:24;;;;;;;20.77;19.60;;;10.50;99.90;;;;;;5049185;28;20227;-74
2022/11/04 09:07:50;;;;;;;28.37;26.73;;;10.60;99.90;;;;;;5049258;28;20839;-73
2022/11/04 09:10:16;;;;;;;28.53;26.87;;;10.70;99.90;;;;;;5049017;28;20191;-73
2022/11/04 09:12:43;;;;;;;13.40;12.50;;;10.80;99.90;;;;;;5050345;28;20189;-75
2022/11/04 09:15:09;;;;;;;9.80;9.00;;;10.90;99.90;;;;;;5049289;28;20291;-74
2022/11/04 09:17:35;;;;;;;8.73;8.03;;;11.00;99.90;;;;;;5065272;28;20193;-73
2022/11/04 09:20:05;;;;;;;13.93;13.03;;;11.20;99.90;;;;;;5068916;28;20210;-75
2022/11/04 09:22:31;;;;;;;44.60;42.20;;;11.50;99.90;;;;;;5054433;28;20183;-74
2022/11/04 09:24:57;;;;;;;27.27;25.63;;;11.60;99.90;;;;;;5055584;28;20175;-73
2022/11/04 09:27:23;;;;;;;14.03;13.13;;;11.70;99.90;;;;;;5065244;28;20188;-73
2022/11/04 09:29:48;;;;;;;20.57;19.27;;;11.60;99.90;;;;;;5075860;28;20180;-73
2022/11/04 09:32:14;;;;;;;20.30;19.00;;;11.50;99.90;;;;;;5072488;28;20182;-73
2022/11/04 09:34:40;;;;;;;20.43;19.23;;;11.60;99.90;;;;;;5072648;28;20231;-73
2022/11/04 09:37:06;;;;;;;19.60;18.07;;;11.70;99.90;;;;;;5064689;28;20186;-74
2022/11/04 09:39:31;;;;;;;12.70;11.63;;;11.80;99.90;;;;;;5051948;28;20289;-72
2022/11/04 09:42:20;;;;;;;10.60;9.77;;;11.90;99.90;;;;;;5052528;28;20260;-74
2022/11/04 09:45:00;;;;;;;6.83;6.27;;;12.10;99.90;;;;;;5052575;28;20190;-74
2022/11/04 09:47:29;;;;;;;41.20;39.10;;;12.20;99.90;;;;;;5068462;28;20176;-75
2022/11/04 09:49:58;;;;;;;75.37;71.50;;;12.20;99.90;;;;;;5092813;28;20184;-76
2022/11/04 09:52:28;;;;;;;109.67;104.37;;;12.30;99.90;;;;;;5092451;28;20207;-75
2022/11/04 09:55:19;;;;;;;111.00;105.57;;;12.40;99.90;;;;;;5072192;28;20200;-76
2022/11/04 09:57:52;;;;;;;8.87;8.27;;;12.60;99.90;;;;;;5070315;28;20272;-76
2022/11/04 10:00:19;;;;;;;8.77;8.27;;;12.70;99.90;;;;;;5072750;28;20282;-75
2022/11/04 10:02:55;;;;;;;8.40;7.73;;;12.60;99.90;;;;;;5072417;28;20235;-77
2022/11/04 10:05:50;;;;;;;12.37;11.60;;;12.60;99.90;;;;;;5072410;28;20240;-76
2022/11/04 10:08:40;;;;;;;9.57;9.07;;;12.80;99.90;;;;;;5055081;28;20688;-76
2022/11/04 10:11:29;;;;;;;12.93;12.17;;;12.90;99.90;;;;;;5053435;28;20626;-75
2022/11/04 10:14:25;;;;;;;11.63;11.03;;;13.20;99.90;;;;;;5053716;28;20220;-76
2022/11/04 10:17:01;;;;;;;15.10;13.87;;;13.40;99.90;;;;;;5058069;28;20284;-76
2022/11/04 10:19:50;;;;;;;14.43;13.43;;;13.50;99.90;;;;;;5072685;28;20257;-77
2022/11/04 10:22:37;;;;;;;15.37;14.40;;;13.60;99.90;;;;;;5072291;28;20182;-77
2022/11/04 10:25:22;;;;;;;12.10;11.40;;;13.80;99.90;;;;;;5071689;28;20255;-77
2022/11/04 10:27:58;;;;;;;17.20;15.57;;;14.00;99.90;;;;;;5058110;28;20178;-77
2022/11/04 10:30:25;;;;;;;9.03;8.20;;;14.20;99.90;;;;;;5051826;28;20185;-76
2022/11/04 10:33:09;;;;;;;5.93;5.63;;;14.30;99.90;;;;;;5053074;28;20182;-77
2022/11/04 10:35:50;;;;;;;4.93;4.63;;;14.30;99.90;;;;;;5054251;28;20202;-77
2022/11/04 10:38:32;;;;;;;4.40;4.10;;;14.40;99.90;;;;;;5062305;28;20201;-78
2022/11/04 10:40:58;;;;;;;7.73;7.13;;;14.60;99.90;;;;;;5066279;28;20217;-76
2022/11/04 10:43:32;;;;;;;7.57;6.90;;;14.50;99.90;;;;;;5061830;28;20182;-75
2022/11/04 10:46:14;;;;;;;5.80;5.50;;;14.30;99.90;;;;;;5089114;28;20192;-77
2022/11/04 10:48:50;;;;;;;6.47;5.73;;;14.30;99.90;;;;;;5070810;28;20189;-76
2022/11/04 10:51:20;;;;;;;7.27;6.87;;;14.50;99.90;;;;;;5072672;28;20673;-76
2022/11/04 10:53:52;;;;;;;8.00;7.40;;;14.70;99.90;;;;;;5071874;28;20614;-77
2022/11/04 10:56:27;;;;;;;13.97;13.30;;;15.00;99.90;;;;;;5091756;22;20320;-71
2022/11/04 10:58:54;;;;;;;8.13;7.73;;;15.70;99.90;;;;;;5056045;28;20270;-73
2022/11/04 11:01:31;;;;;;;8.47;7.90;;;16.20;99.90;;;;;;5071370;28;20195;-72
2022/11/04 11:03:58;;;;;;;6.37;6.00;;;16.60;99.90;;;;;;5072271;28;20642;-72
2022/11/04 11:06:31;;;;;;;7.77;7.37;;;16.80;99.90;;;;;;5071272;28;20197;-72
2022/11/04 11:09:13;;;;;;;14.97;14.17;;;17.30;99.90;;;;;;5055275;28;20577;-72
2022/11/04 11:11:44;;;;;;;8.13;7.53;;;17.80;99.90;;;;;;5072107;28;20185;-72
2022/11/04 11:14:31;;;;;;;12.83;12.17;;;17.90;99.90;;;;;;5071039;28;20280;-72
2022/11/04 11:17:20;;;;;;;9.93;9.17;;;17.40;99.90;;;;;;5066517;28;20296;-72
2022/11/04 11:20:04;;;;;;;10.33;9.63;;;17.00;99.90;;;;;;5051830;28;20207;-72
2022/11/04 11:22:32;;;;;;;23.80;22.57;;;16.80;99.90;;;;;;5051765;28;20182;-72
2022/11/04 11:25:25;;;;;;;34.33;32.63;;;17.10;99.90;;;;;;5051049;28;20183;-71
2022/11/04 11:28:00;;;;;;;37.30;35.47;;;17.20;99.90;;;;;;5062006;28;20197;-72
2022/11/04 11:30:40;;;;;;;29.97;28.37;;;17.00;99.90;;;;;;5071150;28;20189;-72
2022/11/04 11:33:26;;;;;;;40.60;38.50;;;17.00;99.90;;;;;;5070276;28;20193;-72
2022/11/04 11:36:21;;;;;;;27.30;25.97;;;16.90;99.90;;;;;;5051851;28;20190;-71
2022/11/04 11:39:04;;;;;;;38.47;36.47;;;16.90;99.90;;;;;;5044928;28;20213;-72
2022/11/04 11:41:47;;;;;;;31.90;30.40;;;17.20;99.90;;;;;;5051647;28;20186;-71
2022/11/04 11:44:37;;;;;;;28.20;26.57;;;17.00;99.90;;;;;;5033926;28;20255;-72
2022/11/04 11:47:27;;;;;;;33.27;31.63;;;16.80;99.90;;;;;;5054551;28;20208;-72
2022/11/04 11:50:06;;;;;;;33.30;31.47;;;16.60;99.90;;;;;;5069625;28;20185;-72
2022/11/04 11:52:36;;;;;;;43.27;41.07;;;16.30;99.90;;;;;;5070117;28;20189;-73
2022/11/04 11:55:23;;;;;;;44.17;42.03;;;15.90;99.90;;;;;;5071368;28;20181;-71
2022/11/04 11:58:07;;;;;;;39.03;37.07;;;15.60;99.90;;;;;;5115392;28;20292;-70
2022/11/04 12:00:43;;;;;;;46.77;44.43;;;15.50;99.90;;;;;;5126446;28;20220;-73
2022/11/04 12:03:29;;;;;;;42.57;40.33;;;15.30;99.90;;;;;;5112700;28;20187;-72
2022/11/04 12:06:16;;;;;;;44.07;41.60;;;15.30;99.90;;;;;;5097669;28;20192;-72
2022/11/04 12:09:03;;;;;;;39.27;37.37;;;15.40;99.90;;;;;;5108770;28;20183;-72
2022/11/04 12:11:45;;;;;;;42.63;40.53;;;15.20;99.90;;;;;;5111398;28;20623;-70
2022/11/04 12:14:25;;;;;;;52.87;50.10;;;15.20;99.90;;;;;;5111856;28;20180;-72
2022/11/04 12:17:04;;;;;;;59.33;56.23;;;15.30;99.90;;;;;;5108448;28;20224;-72
2022/11/04 12:19:56;;;;;;;62.37;59.10;;;15.20;99.90;;;;;;5099174;28;20201;-72
2022/11/04 12:22:35;;;;;;;57.40;54.20;;;15.30;99.90;;;;;;5098258;28;20263;-72
2022/11/04 12:25:15;;;;;;;60.87;57.50;;;15.40;99.90;;;;;;5111522;28;20183;-73
2022/11/04 12:27:56;;;;;;;67.17;63.77;;;15.60;99.90;;;;;;5110799;28;20192;-72
2022/11/04 12:30:24;;;;;;;60.00;56.93;;;16.00;99.90;;;;;;5111436;28;20195;-71
2022/11/04 12:33:14;;;;;;;39.77;37.57;;;16.50;99.90;;;;;;5097782;28;20190;-72
2022/11/04 12:35:56;;;;;;;20.73;19.67;;;17.10;99.90;;;;;;5090378;28;20213;-72
2022/11/04 12:38:22;;;;;;;22.87;21.33;;;16.90;99.90;;;;;;5113759;28;20224;-73
2022/11/04 12:40:52;;;;;;;25.67;24.23;;;16.60;99.90;;;;;;5111701;28;20193;-72
2022/11/04 12:44:15;;;;;;;24.57;23.03;;;16.30;99.90;;;;;;5107110;28;20254;-72
2022/11/04 12:46:57;;;;;;;54.47;51.77;;;15.60;99.90;;;;;;5030500;28;20203;-73
2022/11/04 12:49:34;;;;;;;70.97;66.97;;;15.10;99.90;;;;;;5027184;28;20670;-71
2022/11/04 12:52:21;;;;;;;82.77;78.70;;;14.80;99.90;;;;;;5076961;28;20196;-71
2022/11/04 12:55:04;;;;;;;67.87;64.47;;;14.80;99.90;;;;;;5110372;28;20271;-72
2022/11/04 12:57:35;;;;;;;78.40;74.47;;;14.80;99.90;;;;;;5091866;28;20220;-72
2022/11/04 13:00:17;;;;;;;76.33;72.47;;;14.90;99.90;;;;;;5094695;28;20257;-72
2022/11/04 13:03:08;;;;;;;78.80;74.33;;;15.00;99.90;;;;;;5095415;28;20181;-72
2022/11/04 13:05:58;;;;;;;77.93;73.70;;;15.00;99.90;;;;;;5114836;28;20173;-72
2022/11/04 13:08:27;;;;;;;64.37;61.27;;;15.00;99.90;;;;;;5113634;28;20656;-72
2022/11/04 13:11:04;;;;;;;43.07;40.87;;;15.00;99.90;;;;;;5114992;28;20571;-72
2022/11/04 13:13:37;;;;;;;50.27;47.27;;;15.20;99.90;;;;;;5107334;28;20212;-72
2022/11/04 13:16:09;;;;;;;35.77;33.73;;;15.30;99.90;;;;;;5094559;28;20201;-72
2022/11/04 13:18:38;;;;;;;24.53;23.17;;;15.30;99.90;;;;;;5092877;28;20286;-72
2022/11/04 13:21:11;;;;;;;25.80;24.30;;;15.40;99.90;;;;;;5094683;28;20177;-74
2022/11/04 13:24:03;;;;;;;24.73;23.27;;;15.30;99.90;;;;;;5090570;28;20186;-70
2022/11/04 13:26:31;;;;;;;48.97;46.20;;;15.20;99.90;;;;;;5092231;28;20843;-71
2022/11/04 13:29:11;;;;;;;58.50;55.43;;;15.20;99.90;;;;;;5092865;28;20184;-71
2022/11/04 13:32:00;;;;;;;76.83;73.07;;;15.10;99.90;;;;;;5094209;28;20241;-71
2022/11/04 13:34:41;;;;;;;70.87;67.37;;;14.90;99.90;;;;;;5094324;28;20545;-70
2022/11/04 13:37:34;;;;;;;34.87;32.93;;;14.80;99.90;;;;;;5095057;28;20208;-72